createdAt,value
2023-02-15T00:00:13.003Z,76.27
2023-02-15T00:01:15.800Z,76.51
2023-02-15T00:02:17.689Z,76.79
2023-02-15T00:03:19.646Z,77.16
2023-02-15T00:04:24.220Z,76.83
2023-02-15T00:05:26.629Z,76.75
2023-02-15T00:06:29.791Z,76.60
2023-02-15T00:07:31.735Z,77.01
2023-02-15T00:08:34.835Z,77.03
2023-02-15T00:09:36.740Z,76.72
2023-02-15T00:10:38.814Z,76.76
2023-02-15T00:11:42.293Z,76.62
2023-02-15T00:12:44.561Z,76.66
2023-02-15T00:13:46.674Z,76.57
2023-02-15T00:14:48.858Z,76.89
2023-02-15T00:15:50.818Z,76.85
2023-02-15T00:16:53.517Z,77.09
2023-02-15T00:17:57.877Z,76.70
2023-02-15T00:18:59.914Z,76.27
2023-02-15T00:20:02.246Z,76.12
2023-02-15T00:21:08.170Z,76.13
2023-02-15T00:22:10.384Z,75.83
2023-02-15T00:23:12.345Z,75.66
2023-02-15T00:24:17.311Z,75.81
2023-02-15T00:25:19.238Z,75.97
2023-02-15T00:26:21.329Z,75.73
2023-02-15T00:27:24.380Z,75.44
2023-02-15T00:28:26.296Z,75.28
2023-02-15T00:29:28.473Z,75.38
2023-02-15T00:30:31.421Z,75.42
2023-02-15T00:31:34.458Z,74.66
2023-02-15T00:32:36.960Z,74.75
2023-02-15T00:33:39.901Z,74.53
2023-02-15T00:34:42.092Z,74.79
2023-02-15T00:35:44.090Z,74.53
2023-02-15T00:36:46.702Z,74.34
2023-02-15T00:37:48.596Z,74.36
2023-02-15T00:38:51.282Z,74.44
2023-02-15T00:39:53.295Z,74.12
2023-02-15T00:40:59.229Z,73.79
2023-02-15T00:42:01.204Z,73.96
2023-02-15T00:43:03.170Z,73.71
2023-02-15T00:44:06.359Z,73.74
2023-02-15T00:45:10.377Z,73.84
2023-02-15T00:46:12.815Z,73.60
2023-02-15T00:47:14.903Z,73.60
2023-02-15T00:48:17.682Z,73.72
2023-02-15T00:49:19.679Z,73.86
2023-02-15T00:50:23.752Z,73.54
2023-02-15T00:51:26.258Z,73.29
2023-02-15T00:52:28.167Z,73.10
2023-02-15T00:53:30.419Z,72.85
2023-02-15T00:54:32.337Z,73.25
2023-02-15T00:55:34.223Z,73.04
2023-02-15T00:56:36.320Z,73.12
2023-02-15T00:57:38.209Z,73.01
2023-02-15T00:58:40.212Z,72.84
2023-02-15T00:59:42.214Z,72.61
2023-02-15T01:00:46.666Z,72.85
2023-02-15T01:01:48.677Z,72.77
2023-02-15T01:02:50.577Z,72.74
2023-02-15T01:03:53.013Z,72.68
2023-02-15T01:04:56.098Z,72.68
2023-02-15T01:05:58.320Z,72.74
2023-02-15T01:07:01.784Z,72.69
2023-02-15T01:08:04.313Z,72.86
2023-02-15T01:09:06.484Z,72.75
2023-02-15T01:10:09.163Z,72.69
2023-02-15T01:11:14.232Z,72.60
2023-02-15T01:12:16.166Z,72.76
2023-02-15T01:13:18.162Z,72.49
2023-02-15T01:14:20.039Z,72.20
2023-02-15T01:15:22.742Z,72.27
2023-02-15T01:16:27.315Z,72.52
2023-02-15T01:17:30.776Z,72.41
2023-02-15T01:18:34.492Z,72.45
2023-02-15T01:19:37.362Z,72.34
2023-02-15T01:20:40.594Z,72.23
2023-02-15T01:21:42.486Z,72.45
2023-02-15T01:22:44.577Z,72.80
2023-02-15T01:23:47.176Z,72.61
2023-02-15T01:24:49.631Z,72.50
2023-02-15T01:25:51.620Z,72.29
2023-02-15T01:26:53.603Z,72.33
2023-02-15T01:27:55.516Z,72.56
2023-02-15T01:28:57.388Z,72.39
2023-02-15T01:30:00.352Z,72.55
2023-02-15T01:31:10.461Z,72.05
2023-02-15T01:32:13.295Z,72.17
2023-02-15T01:33:15.277Z,72.18
2023-02-15T01:34:17.179Z,72.65
2023-02-15T01:35:19.339Z,72.60
2023-02-15T01:36:21.317Z,72.63
2023-02-15T01:37:23.198Z,72.75
2023-02-15T01:38:25.240Z,72.19
2023-02-15T01:39:27.418Z,72.04
2023-02-15T01:40:29.708Z,72.17
2023-02-15T01:41:31.577Z,72.34
2023-02-15T01:42:34.361Z,72.16
2023-02-15T01:43:45.252Z,72.15
2023-02-15T01:44:56.323Z,72.08
2023-02-15T01:45:58.731Z,72.24
2023-02-15T01:47:01.191Z,71.89
2023-02-15T01:48:21.981Z,71.76
2023-02-15T01:49:27.607Z,71.72
2023-02-15T01:50:38.822Z,72.02
2023-02-15T01:51:44.624Z,72.14
2023-02-15T01:53:02.335Z,71.94
2023-02-15T01:55:25.398Z,71.64
2023-02-15T01:56:33.940Z,71.41
2023-02-15T01:57:37.019Z,71.90
2023-02-15T01:58:39.350Z,71.99
2023-02-15T01:59:44.568Z,71.68
2023-02-15T02:00:48.106Z,71.68
2023-02-15T02:01:52.983Z,71.54
2023-02-15T02:02:57.299Z,71.34
2023-02-15T02:04:14.859Z,71.29
2023-02-15T02:05:17.279Z,71.35
2023-02-15T02:06:26.198Z,71.53
2023-02-15T02:07:31.258Z,71.16
2023-02-15T02:08:34.500Z,71.63
2023-02-15T02:09:37.581Z,71.05
2023-02-15T02:10:39.716Z,70.77
2023-02-15T02:11:43.985Z,70.35
2023-02-15T02:12:48.317Z,69.82
2023-02-15T02:13:52.351Z,70.50
2023-02-15T02:14:55.870Z,70.34
2023-02-15T02:17:18.692Z,69.99
2023-02-15T02:18:33.645Z,69.85
2023-02-15T02:20:06.564Z,69.52
2023-02-15T02:21:12.246Z,69.72
2023-02-15T02:22:26.912Z,70.17
2023-02-15T02:25:18.966Z,69.94
2023-02-15T02:26:36.947Z,70.50
2023-02-15T02:28:03.112Z,70.37
2023-02-15T02:29:11.666Z,70.15
2023-02-15T02:30:18.178Z,69.85
2023-02-15T02:31:38.924Z,70.08
2023-02-15T02:34:15.290Z,70.84
2023-02-15T02:35:32.640Z,70.74
2023-02-15T02:36:53.218Z,70.61
2023-02-15T02:38:02.208Z,70.71
2023-02-15T02:39:19.916Z,70.99
2023-02-15T02:40:25.751Z,71.36
2023-02-15T02:41:57.679Z,71.23
2023-02-15T02:43:18.353Z,71.21
2023-02-15T02:44:24.059Z,71.29
2023-02-15T02:45:35.452Z,71.21
2023-02-15T02:46:39.324Z,71.06
2023-02-15T02:47:57.448Z,70.96
2023-02-15T02:48:59.711Z,71.10
2023-02-15T02:50:05.772Z,71.38
2023-02-15T02:51:08.037Z,71.38
2023-02-15T02:52:40.066Z,71.10
2023-02-15T02:53:42.237Z,71.16
2023-02-15T02:54:44.642Z,71.14
2023-02-15T02:55:55.776Z,70.95
2023-02-15T02:57:00.577Z,71.04
2023-02-15T02:58:06.860Z,70.62
2023-02-15T02:59:18.249Z,70.59
2023-02-15T03:00:21.998Z,70.57
2023-02-15T03:01:31.358Z,70.73
2023-02-15T03:02:37.118Z,70.76
2023-02-15T03:03:48.230Z,70.42
2023-02-15T03:04:54.149Z,70.39
2023-02-15T03:06:00.160Z,70.27
2023-02-15T03:07:09.901Z,70.28
2023-02-15T03:08:15.589Z,70.48
2023-02-15T03:09:27.487Z,70.54
2023-02-15T03:10:30.452Z,71.03
2023-02-15T03:11:33.037Z,70.82
2023-02-15T03:12:37.768Z,70.71
2023-02-15T03:13:40.801Z,70.87
2023-02-15T03:14:47.754Z,71.15
2023-02-15T03:15:51.382Z,71.05
2023-02-15T03:16:55.349Z,70.77
2023-02-15T03:18:01.222Z,71.20
2023-02-15T03:19:09.866Z,71.56
2023-02-15T03:20:22.795Z,71.58
2023-02-15T03:21:34.381Z,71.48
2023-02-15T03:22:38.075Z,71.23
2023-02-15T03:23:40.500Z,71.46
2023-02-15T03:24:46.907Z,71.19
2023-02-15T03:27:06.876Z,71.13
2023-02-15T03:28:18.491Z,71.06
2023-02-15T03:29:24.229Z,71.06
2023-02-15T03:30:28.707Z,70.98
2023-02-15T03:31:34.517Z,70.64
2023-02-15T03:32:39.693Z,70.34
2023-02-15T03:33:45.455Z,69.94
2023-02-15T03:34:47.907Z,69.36
2023-02-15T03:36:08.959Z,68.42
2023-02-15T03:37:17.789Z,67.96
2023-02-15T03:38:27.353Z,68.04
2023-02-15T03:39:49.860Z,68.36
2023-02-15T03:40:55.921Z,68.00
2023-02-15T03:42:07.470Z,67.56
2023-02-15T03:43:23.304Z,67.85
2023-02-15T03:44:31.239Z,67.79
2023-02-15T03:45:35.566Z,68.38
2023-02-15T03:46:51.719Z,68.22
2023-02-15T03:47:56.774Z,68.68
2023-02-15T03:49:05.606Z,68.59
2023-02-15T03:50:15.562Z,68.57
2023-02-15T03:51:21.549Z,68.69
2023-02-15T03:52:27.234Z,68.67
2023-02-15T03:53:30.622Z,69.30
2023-02-15T03:54:34.727Z,68.93
2023-02-15T03:55:38.430Z,68.86
2023-02-15T03:56:42.525Z,68.89
2023-02-15T03:57:45.151Z,68.95
2023-02-15T03:58:47.451Z,69.08
2023-02-15T03:59:49.629Z,68.65
2023-02-15T04:01:00.425Z,68.37
2023-02-15T04:02:12.115Z,67.69
2023-02-15T04:03:28.084Z,67.48
2023-02-15T04:04:37.764Z,67.83
2023-02-15T04:05:40.603Z,67.74
2023-02-15T04:06:42.604Z,68.11
2023-02-15T04:07:47.716Z,68.27
2023-02-15T04:08:49.634Z,68.10
2023-02-15T04:09:51.519Z,68.15
2023-02-15T04:10:53.583Z,67.67
2023-02-15T04:11:55.692Z,67.97
2023-02-15T04:12:57.585Z,68.14
2023-02-15T04:14:00.152Z,68.58
2023-02-15T04:15:02.400Z,68.83
2023-02-15T04:16:05.757Z,69.14
2023-02-15T04:17:09.738Z,68.50
2023-02-15T04:18:32.793Z,68.35
2023-02-15T04:19:35.194Z,68.33
2023-02-15T04:20:37.317Z,68.39
2023-02-15T04:21:39.268Z,68.82
2023-02-15T04:22:41.454Z,69.28
2023-02-15T04:23:43.491Z,69.27
2023-02-15T04:24:45.474Z,68.69
2023-02-15T04:25:48.244Z,68.66
2023-02-15T04:26:50.679Z,69.11
2023-02-15T04:27:54.510Z,68.96
2023-02-15T04:28:56.417Z,69.08
2023-02-15T04:29:58.354Z,69.38
2023-02-15T04:31:01.818Z,69.28
2023-02-15T04:32:04.127Z,69.30
2023-02-15T04:33:06.280Z,68.89
2023-02-15T04:34:08.163Z,68.93
2023-02-15T04:35:10.906Z,69.70
2023-02-15T04:36:13.232Z,69.78
2023-02-15T04:37:15.132Z,69.58
2023-02-15T04:38:17.015Z,69.60
2023-02-15T04:39:19.553Z,69.48
2023-02-15T04:40:21.537Z,69.28
2023-02-15T04:41:23.556Z,69.26
2023-02-15T04:42:26.298Z,69.28
2023-02-15T04:43:28.621Z,69.28
2023-02-15T04:44:30.485Z,69.29
2023-02-15T04:45:32.390Z,69.54
2023-02-15T04:46:34.704Z,69.30
2023-02-15T04:47:36.668Z,69.65
2023-02-15T04:48:38.732Z,69.75
2023-02-15T04:49:40.646Z,69.79
2023-02-15T04:50:44.951Z,70.12
2023-02-15T04:51:49.036Z,70.24
2023-02-15T04:52:50.968Z,70.07
2023-02-15T04:53:53.248Z,70.15
2023-02-15T04:54:55.251Z,70.12
2023-02-15T04:55:57.207Z,70.33
2023-02-15T04:56:59.452Z,70.35
2023-02-15T04:58:01.425Z,70.50
2023-02-15T04:59:04.259Z,70.43
2023-02-15T05:00:08.043Z,70.60
2023-02-15T05:01:10.765Z,70.94
2023-02-15T05:02:12.851Z,70.91
2023-02-15T05:03:14.789Z,71.51
2023-02-15T05:04:16.779Z,71.63
2023-02-15T05:05:18.856Z,71.61
2023-02-15T05:06:21.828Z,71.14
2023-02-15T05:07:23.813Z,70.86
2023-02-15T05:08:25.989Z,70.93
2023-02-15T05:09:27.952Z,71.21
2023-02-15T05:10:30.046Z,71.25
2023-02-15T05:11:32.106Z,71.64
2023-02-15T05:12:34.463Z,71.89
2023-02-15T05:13:36.672Z,71.90
2023-02-15T05:14:38.957Z,71.52
2023-02-15T05:15:41.042Z,71.47
2023-02-15T05:16:43.630Z,71.67
2023-02-15T05:17:45.794Z,72.00
2023-02-15T05:18:47.874Z,72.52
2023-02-15T05:19:49.762Z,72.72
2023-02-15T05:20:51.902Z,72.37
2023-02-15T05:21:53.945Z,72.61
2023-02-15T05:22:56.166Z,73.09
2023-02-15T05:23:58.976Z,73.04
2023-02-15T05:25:01.559Z,73.29
2023-02-15T05:26:04.175Z,73.29
2023-02-15T05:27:06.726Z,73.13
2023-02-15T05:28:10.864Z,73.15
2023-02-15T05:29:13.250Z,73.53
2023-02-15T05:30:15.972Z,73.48
2023-02-15T05:31:19.845Z,73.80
2023-02-15T05:32:22.328Z,73.96
2023-02-15T05:33:24.536Z,73.71
2023-02-15T05:34:26.438Z,73.81
2023-02-15T05:35:28.309Z,73.83
2023-02-15T05:36:30.472Z,73.90
2023-02-15T05:37:32.499Z,74.00
2023-02-15T05:38:35.046Z,74.05
2023-02-15T05:39:36.983Z,74.05
2023-02-15T05:40:38.962Z,73.91
2023-02-15T05:41:41.612Z,73.88
2023-02-15T05:42:43.927Z,74.40
2023-02-15T05:43:46.748Z,74.39
2023-02-15T05:44:49.032Z,74.42
2023-02-15T05:45:54.001Z,74.20
2023-02-15T05:46:56.451Z,74.33
2023-02-15T05:47:58.454Z,73.97
2023-02-15T05:49:00.455Z,74.00
2023-02-15T05:50:03.809Z,74.24
2023-02-15T05:51:09.070Z,73.99
2023-02-15T05:52:11.096Z,73.15
2023-02-15T05:53:13.130Z,72.72
2023-02-15T05:54:15.105Z,73.09
2023-02-15T05:55:17.457Z,72.91
2023-02-15T05:56:20.492Z,72.39
2023-02-15T05:57:23.411Z,72.24
2023-02-15T05:58:32.045Z,72.33
2023-02-15T05:59:34.119Z,72.44
2023-02-15T06:00:38.181Z,72.21
2023-02-15T06:01:40.285Z,72.07
2023-02-15T06:02:42.274Z,72.67
2023-02-15T06:03:46.802Z,72.37
2023-02-15T06:04:48.865Z,72.05
2023-02-15T06:05:50.938Z,71.66
2023-02-15T06:06:53.089Z,71.59
2023-02-15T06:07:55.060Z,71.75
2023-02-15T06:08:57.239Z,71.91
2023-02-15T06:09:59.131Z,71.89
2023-02-15T06:11:01.797Z,72.03
2023-02-15T06:12:04.555Z,71.62
2023-02-15T06:13:07.315Z,71.14
2023-02-15T06:14:10.050Z,70.66
2023-02-15T06:15:12.169Z,70.34
2023-02-15T06:16:16.097Z,70.40
2023-02-15T06:17:18.166Z,70.13
2023-02-15T06:18:20.480Z,70.12
2023-02-15T06:19:22.404Z,70.21
2023-02-15T06:20:25.455Z,70.15
2023-02-15T06:21:27.817Z,69.92
2023-02-15T06:22:29.803Z,69.70
2023-02-15T06:23:31.701Z,69.98
2023-02-15T06:24:33.608Z,69.76
2023-02-15T06:25:36.906Z,70.08
2023-02-15T06:26:39.901Z,69.77
2023-02-15T06:27:42.783Z,69.70
2023-02-15T06:28:44.992Z,69.35
2023-02-15T06:29:46.901Z,69.13
2023-02-15T06:30:48.936Z,69.09
2023-02-15T06:31:51.041Z,69.05
2023-02-15T06:32:53.295Z,69.15
2023-02-15T06:33:55.393Z,68.77
2023-02-15T06:34:57.282Z,68.99
2023-02-15T06:36:00.111Z,68.87
2023-02-15T06:37:02.467Z,68.70
2023-02-15T06:38:04.386Z,68.99
2023-02-15T06:39:07.917Z,68.94
2023-02-15T06:40:10.937Z,68.51
2023-02-15T06:41:13.092Z,68.37
2023-02-15T06:42:14.969Z,68.38
2023-02-15T06:43:17.039Z,68.43
2023-02-15T06:44:18.930Z,68.36
2023-02-15T06:45:21.011Z,68.47
2023-02-15T06:46:23.882Z,68.81
2023-02-15T06:47:26.209Z,68.39
2023-02-15T06:48:28.524Z,68.06
2023-02-15T06:49:30.524Z,67.58
2023-02-15T06:50:32.905Z,67.42
2023-02-15T06:51:34.798Z,67.40
2023-02-15T06:52:38.918Z,67.12
2023-02-15T06:53:40.864Z,67.33
2023-02-15T06:54:42.770Z,67.12
2023-02-15T06:55:44.742Z,66.53
2023-02-15T06:56:46.727Z,66.20
2023-02-15T06:57:50.886Z,66.10
2023-02-15T06:58:53.186Z,66.40
2023-02-15T06:59:55.199Z,66.40
2023-02-15T07:00:57.453Z,66.24
2023-02-15T07:01:59.452Z,65.57
2023-02-15T07:03:01.318Z,65.65
2023-02-15T07:04:04.535Z,64.50
2023-02-15T07:05:06.773Z,63.94
2023-02-15T07:06:09.358Z,64.37
2023-02-15T07:07:12.810Z,63.86
2023-02-15T07:08:14.784Z,63.67
2023-02-15T07:09:16.677Z,64.06
2023-02-15T07:10:19.182Z,64.84
2023-02-15T07:11:21.078Z,64.85
2023-02-15T07:12:23.804Z,65.07
2023-02-15T07:13:25.788Z,64.43
2023-02-15T07:14:29.045Z,64.75
2023-02-15T07:15:31.127Z,64.64
2023-02-15T07:16:33.105Z,64.97
2023-02-15T07:17:36.889Z,64.28
2023-02-15T07:18:40.080Z,64.68
2023-02-15T07:19:42.135Z,64.85
2023-02-15T07:20:44.174Z,65.27
2023-02-15T07:21:46.085Z,65.28
2023-02-15T07:22:48.540Z,64.99
2023-02-15T07:23:50.424Z,65.49
2023-02-15T07:24:52.300Z,65.70
2023-02-15T07:25:58.872Z,65.59
2023-02-15T07:27:01.893Z,64.88
2023-02-15T07:28:04.876Z,64.33
2023-02-15T07:29:07.784Z,64.31
2023-02-15T07:30:13.246Z,64.75
2023-02-15T07:31:15.447Z,64.21
2023-02-15T07:32:17.851Z,64.74
2023-02-15T07:33:20.303Z,64.80
2023-02-15T07:34:22.228Z,64.55
2023-02-15T07:35:24.659Z,64.73
2023-02-15T07:36:27.082Z,64.68
2023-02-15T07:37:29.124Z,64.54
2023-02-15T07:38:34.581Z,65.22
2023-02-15T07:39:36.652Z,64.93
2023-02-15T07:40:39.229Z,65.13
2023-02-15T07:41:41.250Z,64.64
2023-02-15T07:42:43.143Z,64.32
2023-02-15T07:43:46.506Z,65.17
2023-02-15T07:44:49.733Z,64.86
2023-02-15T07:45:51.737Z,64.01
2023-02-15T07:46:54.188Z,63.87
2023-02-15T07:47:56.452Z,63.66
2023-02-15T07:48:58.417Z,63.70
2023-02-15T07:50:00.316Z,63.33
2023-02-15T07:51:05.144Z,62.98
2023-02-15T07:52:07.522Z,62.31
2023-02-15T07:53:09.628Z,63.42
2023-02-15T07:54:11.770Z,63.46
2023-02-15T07:55:14.059Z,63.51
2023-02-15T07:56:16.282Z,63.74
2023-02-15T07:57:18.311Z,62.84
2023-02-15T07:58:20.292Z,61.75
2023-02-15T07:59:22.181Z,62.36
2023-02-15T08:00:24.501Z,60.61
2023-02-15T08:01:30.062Z,58.91
2023-02-15T08:02:32.144Z,58.32
2023-02-15T08:03:34.751Z,58.53
2023-02-15T08:04:36.746Z,58.15
2023-02-15T08:05:41.129Z,59.42
2023-02-15T08:06:43.169Z,60.41
2023-02-15T08:07:45.152Z,60.98
2023-02-15T08:08:47.209Z,61.40
2023-02-15T08:09:49.184Z,62.25
2023-02-15T08:10:52.174Z,61.94
2023-02-15T08:11:54.113Z,62.11
2023-02-15T08:12:56.087Z,61.60
2023-02-15T08:14:00.873Z,62.41
2023-02-15T08:15:03.274Z,61.88
2023-02-15T08:16:06.299Z,63.01
2023-02-15T08:17:08.318Z,63.14
2023-02-15T08:18:10.240Z,62.94
2023-02-15T08:19:21.432Z,62.76
2023-02-15T08:20:24.017Z,62.24
2023-02-15T08:21:28.246Z,62.05
2023-02-15T08:22:30.285Z,61.46
2023-02-15T08:23:32.174Z,60.74
2023-02-15T08:24:36.567Z,60.32
2023-02-15T08:25:38.493Z,61.57
2023-02-15T08:26:42.528Z,61.06
2023-02-15T08:27:44.644Z,61.97
2023-02-15T08:28:46.686Z,62.93
2023-02-15T08:29:48.585Z,62.67
2023-02-15T08:30:50.810Z,63.00
2023-02-15T08:32:01.752Z,64.10
2023-02-15T08:33:03.865Z,64.46
2023-02-15T08:34:06.803Z,64.69
2023-02-15T08:35:08.900Z,64.35
2023-02-15T08:36:18.044Z,64.64
2023-02-15T08:37:20.050Z,64.99
2023-02-15T08:38:21.945Z,64.59
2023-02-15T08:39:24.329Z,64.79
2023-02-15T08:40:26.524Z,65.33
2023-02-15T08:41:32.055Z,65.40
2023-02-15T08:42:34.897Z,65.85
2023-02-15T08:43:37.237Z,65.81
2023-02-15T08:44:39.126Z,65.29
2023-02-15T08:45:42.089Z,64.80
2023-02-15T08:46:45.487Z,64.11
2023-02-15T08:47:47.470Z,65.37
2023-02-15T08:48:51.105Z,65.71
2023-02-15T08:49:53.030Z,65.50
2023-02-15T08:50:55.026Z,65.55
2023-02-15T08:51:57.140Z,65.79
2023-02-15T08:52:59.142Z,66.54
2023-02-15T08:54:05.278Z,65.96
2023-02-15T08:55:07.752Z,65.13
2023-02-15T08:56:10.967Z,64.65
2023-02-15T08:57:12.987Z,64.73
2023-02-15T08:58:14.983Z,63.90
2023-02-15T08:59:19.867Z,63.99
2023-02-15T09:00:22.574Z,63.68
2023-02-15T09:01:27.515Z,63.59
2023-02-15T09:02:29.592Z,63.70
2023-02-15T09:03:31.574Z,63.65
2023-02-15T09:04:34.176Z,64.40
2023-02-15T09:05:36.079Z,64.10
2023-02-15T09:06:40.066Z,64.39
2023-02-15T09:07:42.238Z,64.31
2023-02-15T09:08:44.602Z,64.94
2023-02-15T09:09:46.472Z,64.50
2023-02-15T09:10:48.550Z,63.79
2023-02-15T09:11:56.824Z,63.57
2023-02-15T09:12:56.490Z,64.85
2023-02-15T09:14:05.135Z,64.62
2023-02-15T09:15:07.748Z,64.80
2023-02-15T09:16:10.050Z,65.55
2023-02-15T09:17:14.204Z,65.20
2023-02-15T09:18:15.845Z,64.81
2023-02-15T09:19:20.051Z,65.29
2023-02-15T09:20:22.227Z,64.76
2023-02-15T09:21:25.640Z,64.19
2023-02-15T09:22:27.669Z,64.18
2023-02-15T09:23:29.531Z,64.03
2023-02-15T09:24:32.886Z,63.79
2023-02-15T09:25:36.356Z,64.75
2023-02-15T09:26:42.134Z,65.87
2023-02-15T09:27:44.158Z,66.07
2023-02-15T09:28:47.078Z,66.89
2023-02-15T09:29:48.986Z,67.02
2023-02-15T09:30:51.221Z,66.83
2023-02-15T09:31:53.300Z,66.09
2023-02-15T09:32:55.258Z,66.10
2023-02-15T09:33:59.962Z,66.14
2023-02-15T09:35:02.799Z,65.78
2023-02-15T09:36:07.782Z,66.16
2023-02-15T09:37:09.809Z,65.71
2023-02-15T09:38:13.042Z,65.48
2023-02-15T09:39:25.922Z,64.95
2023-02-15T09:40:31.289Z,64.89
2023-02-15T09:41:50.027Z,64.46
2023-02-15T09:43:04.991Z,64.65
2023-02-15T09:44:35.177Z,64.16
2023-02-15T09:45:47.330Z,64.85
2023-02-15T09:47:08.154Z,64.19
2023-02-15T09:48:41.150Z,65.14
2023-02-15T09:51:21.612Z,66.66
2023-02-15T09:52:27.623Z,66.89
2023-02-15T09:53:54.537Z,66.44
2023-02-15T09:55:03.504Z,65.82
2023-02-15T09:56:12.530Z,65.22
2023-02-15T09:57:31.002Z,64.92
2023-02-15T09:58:43.037Z,65.11
2023-02-15T10:00:00.594Z,65.10
2023-02-15T10:01:12.536Z,65.17
2023-02-15T10:02:27.040Z,64.79
2023-02-15T10:03:35.807Z,65.33
2023-02-15T10:05:04.818Z,65.16
2023-02-15T10:06:31.507Z,66.33
2023-02-15T10:07:54.624Z,65.61
2023-02-15T10:09:09.350Z,64.94
2023-02-15T10:11:55.606Z,64.70
2023-02-15T10:13:16.017Z,64.60
2023-02-15T10:14:27.943Z,64.52
2023-02-15T10:15:40.633Z,64.22
2023-02-15T10:17:09.624Z,65.35
2023-02-15T10:18:38.543Z,64.85
2023-02-15T10:19:47.414Z,64.72
2023-02-15T10:22:21.882Z,64.69
2023-02-15T10:23:37.159Z,64.08
2023-02-15T10:24:48.752Z,64.15
2023-02-15T10:26:11.806Z,63.64
2023-02-15T10:27:18.068Z,64.23
2023-02-15T10:28:26.707Z,63.41
2023-02-15T10:29:41.000Z,63.83
2023-02-15T10:30:52.593Z,63.90
2023-02-15T10:32:04.420Z,63.56
2023-02-15T10:33:23.317Z,62.86
2023-02-15T10:34:31.692Z,62.48
2023-02-15T10:35:47.196Z,61.62
2023-02-15T10:37:11.719Z,61.19
2023-02-15T10:38:34.113Z,61.42
2023-02-15T10:39:59.463Z,61.34
2023-02-15T10:41:08.386Z,61.38
2023-02-15T10:42:22.798Z,61.48
2023-02-15T10:43:35.484Z,61.77
2023-02-15T10:44:59.401Z,61.57
2023-02-15T10:46:39.536Z,60.85
2023-02-15T10:47:59.610Z,59.80
2023-02-15T10:49:26.244Z,60.37
2023-02-15T10:50:42.125Z,60.00
2023-02-15T10:52:04.756Z,59.61
2023-02-15T10:53:10.582Z,60.19
2023-02-15T10:54:21.764Z,59.44
2023-02-15T10:55:30.500Z,58.95
2023-02-15T10:56:54.457Z,59.65
2023-02-15T10:58:34.995Z,59.54
2023-02-15T10:59:57.420Z,59.64
2023-02-15T11:01:12.488Z,59.48
2023-02-15T11:04:18.950Z,58.61
2023-02-15T11:05:24.801Z,58.18
2023-02-15T11:06:28.150Z,57.82
2023-02-15T11:07:38.141Z,57.99
2023-02-15T11:08:46.371Z,57.58
2023-02-15T11:09:51.991Z,57.31
2023-02-15T11:11:03.747Z,57.14
2023-02-15T11:12:09.748Z,56.99
2023-02-15T11:13:20.175Z,56.69
2023-02-15T11:14:25.937Z,56.68
2023-02-15T11:15:34.639Z,56.55
2023-02-15T11:16:40.384Z,56.57
2023-02-15T11:17:46.044Z,56.25
2023-02-15T11:18:57.617Z,56.10
2023-02-15T11:20:01.397Z,56.11
2023-02-15T11:21:33.221Z,55.89
2023-02-15T11:22:36.210Z,55.63
2023-02-15T11:23:44.623Z,54.95
2023-02-15T11:24:47.555Z,55.12
2023-02-15T11:26:02.408Z,54.56
2023-02-15T11:27:08.024Z,54.33
2023-02-15T11:28:13.886Z,54.30
2023-02-15T11:29:25.663Z,54.03
2023-02-15T11:30:49.607Z,54.06
2023-02-15T11:31:55.581Z,54.00
2023-02-15T11:33:00.822Z,53.87
2023-02-15T11:34:06.640Z,53.91
2023-02-15T11:35:16.418Z,53.12
2023-02-15T11:36:31.460Z,52.76
2023-02-15T11:37:43.257Z,52.50
2023-02-15T11:38:49.002Z,52.17
2023-02-15T11:39:52.435Z,52.37
2023-02-15T11:42:15.499Z,52.26
2023-02-15T11:43:24.055Z,51.93
2023-02-15T11:44:32.844Z,51.94
2023-02-15T11:45:35.549Z,51.95
2023-02-15T11:46:38.748Z,52.43
2023-02-15T11:47:41.405Z,52.10
2023-02-15T11:48:43.862Z,52.36
2023-02-15T11:49:46.647Z,52.07
2023-02-15T11:50:49.892Z,52.38
2023-02-15T11:51:54.954Z,52.63
2023-02-15T11:53:03.721Z,51.94
2023-02-15T11:54:06.360Z,50.73
2023-02-15T11:55:15.760Z,50.85
2023-02-15T11:56:22.230Z,50.92
2023-02-15T11:57:30.778Z,50.60
2023-02-15T11:59:55.912Z,49.39
2023-02-15T12:01:18.369Z,49.39
2023-02-15T12:02:22.940Z,49.11
2023-02-15T12:03:44.248Z,49.95
2023-02-15T12:04:59.095Z,49.49
2023-02-15T12:06:04.529Z,49.45
2023-02-15T12:07:25.954Z,49.24
2023-02-15T12:08:31.758Z,48.76
2023-02-15T12:09:46.619Z,48.36
2023-02-15T12:11:09.260Z,48.35
2023-02-15T12:12:32.543Z,48.40
2023-02-15T12:13:35.935Z,48.72
2023-02-15T12:14:53.635Z,47.85
2023-02-15T12:15:59.390Z,47.21
2023-02-15T12:17:01.753Z,47.70
2023-02-15T12:18:04.665Z,47.47
2023-02-15T12:19:10.359Z,47.97
2023-02-15T12:20:16.507Z,48.12
2023-02-15T12:21:30.680Z,47.92
2023-02-15T12:22:36.229Z,48.13
2023-02-15T12:23:54.495Z,48.12
2023-02-15T12:25:00.176Z,47.64
2023-02-15T12:26:03.664Z,47.49
2023-02-15T12:27:18.125Z,47.79
2023-02-15T12:28:33.048Z,47.92
2023-02-15T12:29:50.965Z,47.53
2023-02-15T12:30:55.238Z,47.34
2023-02-15T12:31:58.370Z,47.89
2023-02-15T12:33:19.016Z,47.23
2023-02-15T12:34:28.156Z,47.06
2023-02-15T12:35:37.890Z,47.29
2023-02-15T12:36:49.571Z,47.78
2023-02-15T12:37:53.219Z,47.66
2023-02-15T12:39:17.477Z,47.18
2023-02-15T12:41:34.030Z,46.80
2023-02-15T12:42:44.254Z,47.03
2023-02-15T12:43:46.166Z,46.58
2023-02-15T12:45:00.941Z,46.39
2023-02-15T12:46:26.341Z,46.55
2023-02-15T12:47:31.478Z,46.63
2023-02-15T12:48:33.608Z,46.53
2023-02-15T12:49:38.228Z,46.54
2023-02-15T12:50:42.587Z,47.21
2023-02-15T12:51:50.205Z,46.51
2023-02-15T12:52:55.982Z,46.28
2023-02-15T12:53:58.835Z,46.38
2023-02-15T12:55:15.036Z,46.42
2023-02-15T12:56:24.032Z,46.14
2023-02-15T12:57:30.764Z,45.87
2023-02-15T12:58:34.804Z,45.76
2023-02-15T12:59:36.993Z,45.75
2023-02-15T13:00:39.370Z,46.28
2023-02-15T13:01:42.633Z,46.56
2023-02-15T13:02:48.343Z,46.89
2023-02-15T13:04:06.495Z,46.85
2023-02-15T13:05:12.264Z,46.97
2023-02-15T13:06:18.094Z,47.22
2023-02-15T13:07:20.800Z,46.76
2023-02-15T13:08:31.859Z,46.88
2023-02-15T13:09:39.936Z,47.14
2023-02-15T13:10:57.760Z,46.85
2023-02-15T13:12:27.805Z,47.08
2023-02-15T13:13:33.221Z,46.79
2023-02-15T13:14:35.548Z,46.51
2023-02-15T13:15:41.387Z,46.90
2023-02-15T13:16:47.180Z,46.61
2023-02-15T13:17:49.367Z,47.12
2023-02-15T13:18:53.155Z,47.16
2023-02-15T13:19:58.627Z,46.94
2023-02-15T13:21:19.002Z,47.04
2023-02-15T13:22:24.696Z,47.46
2023-02-15T13:23:29.025Z,47.16
2023-02-15T13:24:38.278Z,47.16
2023-02-15T13:27:12.908Z,47.58
2023-02-15T13:28:03.854Z,47.37
2023-02-15T13:30:30.166Z,47.15
2023-02-15T13:31:33.179Z,47.44
2023-02-15T13:32:38.244Z,47.69
2023-02-15T13:33:44.150Z,47.32
2023-02-15T13:34:47.499Z,47.42
2023-02-15T13:36:07.921Z,47.15
2023-02-15T13:37:19.265Z,47.06
2023-02-15T13:38:43.390Z,47.07
2023-02-15T13:40:10.489Z,47.22
2023-02-15T13:41:19.136Z,46.85
2023-02-15T13:42:27.786Z,46.53
2023-02-15T13:43:33.471Z,46.81
2023-02-15T13:45:08.185Z,46.92
2023-02-15T13:46:26.309Z,46.45
2023-02-15T13:47:43.888Z,46.68
2023-02-15T13:49:08.737Z,46.02
2023-02-15T13:50:18.055Z,46.23
2023-02-15T13:51:26.572Z,46.26
2023-02-15T13:52:30.989Z,46.28
2023-02-15T13:53:54.417Z,46.78
2023-02-15T13:55:02.852Z,46.53
2023-02-15T13:56:37.660Z,46.62
2023-02-15T13:57:56.356Z,46.94
2023-02-15T13:59:17.830Z,46.42
2023-02-15T14:00:38.781Z,46.76
2023-02-15T14:01:50.238Z,45.69
2023-02-15T14:03:03.111Z,45.61
2023-02-15T14:04:20.937Z,45.66
2023-02-15T14:05:32.386Z,45.54
2023-02-15T14:06:50.578Z,45.21
2023-02-15T14:08:11.498Z,45.28
2023-02-15T14:09:20.206Z,45.24
2023-02-15T14:10:34.568Z,45.20
2023-02-15T14:12:04.928Z,44.97
2023-02-15T14:13:33.510Z,45.51
2023-02-15T14:14:39.205Z,45.23
2023-02-15T14:16:05.701Z,45.14
2023-02-15T14:17:45.905Z,45.13
2023-02-15T14:20:11.171Z,45.65
2023-02-15T14:21:34.900Z,45.79
2023-02-15T14:22:40.573Z,46.15
2023-02-15T14:23:51.695Z,45.93
2023-02-15T14:25:17.312Z,45.77
2023-02-15T14:26:58.791Z,45.69
2023-02-15T14:28:22.894Z,45.82
2023-02-15T14:29:52.056Z,45.88
2023-02-15T14:30:56.125Z,45.69
2023-02-15T14:32:02.106Z,45.97
2023-02-15T14:33:10.681Z,46.20
2023-02-15T14:34:25.277Z,46.18
2023-02-15T14:35:29.668Z,46.19
2023-02-15T14:36:33.658Z,46.13
2023-02-15T14:38:14.611Z,46.17
2023-02-15T14:39:30.208Z,46.29